createdAt,value
2019-04-30T00:02:34.406Z,12.07
2019-04-30T00:05:10.063Z,11.33
2019-04-30T00:07:50.892Z,11.12
2019-04-30T00:10:29.512Z,12.07
2019-04-30T00:13:06.114Z,11.83
2019-04-30T00:15:45.239Z,10.50
2019-04-30T00:18:22.909Z,10.08
2019-04-30T00:21:01.118Z,11.08
2019-04-30T00:23:38.386Z,8.98
2019-04-30T00:26:17.298Z,9.00
2019-04-30T00:28:55.328Z,10.35
2019-04-30T00:31:34.960Z,9.53
2019-04-30T00:34:12.255Z,9.85
2019-04-30T00:36:50.175Z,9.23
2019-04-30T00:39:27.599Z,9.40
2019-04-30T00:42:05.684Z,9.78
2019-04-30T00:44:42.961Z,9.53
2019-04-30T00:47:20.116Z,9.55
2019-04-30T00:50:00.219Z,9.28
2019-04-30T00:52:37.699Z,9.60
2019-04-30T00:55:15.149Z,11.35
2019-04-30T00:57:53.599Z,9.43
2019-04-30T01:00:32.353Z,9.63
2019-04-30T01:03:16.745Z,8.90
2019-04-30T01:05:55.177Z,9.95
2019-04-30T01:08:35.840Z,9.33
2019-04-30T01:11:15.345Z,8.85
2019-04-30T01:13:54.006Z,8.23
2019-04-30T01:16:33.100Z,6.60
2019-04-30T01:19:26.487Z,7.45
2019-04-30T01:21:50.976Z,10.15
2019-04-30T01:24:31.589Z,10.10
2019-04-30T01:27:10.574Z,10.58
2019-04-30T01:29:48.846Z,8.23
2019-04-30T01:32:26.362Z,7.30
2019-04-30T01:35:04.887Z,7.58
2019-04-30T01:37:41.665Z,10.58
2019-04-30T01:40:20.424Z,8.70
2019-04-30T01:42:59.300Z,7.67
2019-04-30T01:45:38.693Z,7.62
2019-04-30T01:48:16.555Z,6.62
2019-04-30T01:50:54.555Z,7.40
2019-04-30T01:53:32.072Z,7.62
2019-04-30T01:56:20.982Z,7.08
2019-04-30T01:59:01.415Z,6.30
2019-04-30T02:01:40.731Z,6.70
2019-04-30T02:04:19.560Z,9.95
2019-04-30T02:06:59.192Z,6.80
2019-04-30T02:09:38.818Z,6.92
2019-04-30T02:12:19.725Z,5.40
2019-04-30T02:14:59.662Z,6.73
2019-04-30T02:17:38.868Z,5.50
2019-04-30T02:20:16.414Z,6.50
2019-04-30T02:22:54.077Z,5.45
2019-04-30T02:25:31.603Z,6.08
2019-04-30T02:28:09.309Z,5.80
2019-04-30T02:30:50.075Z,6.17
2019-04-30T02:33:29.850Z,5.67
2019-04-30T02:36:40.569Z,7.75
2019-04-30T02:39:20.360Z,6.72
2019-04-30T02:41:59.768Z,6.45
2019-04-30T02:44:40.556Z,5.90
2019-04-30T02:47:20.292Z,5.60
2019-04-30T02:50:14.129Z,5.70
2019-04-30T02:52:41.594Z,5.25
2019-04-30T02:55:22.073Z,5.87
2019-04-30T02:57:59.598Z,5.00
2019-04-30T03:00:39.409Z,5.42
2019-04-30T03:03:16.524Z,5.65
2019-04-30T03:05:54.823Z,6.28
2019-04-30T03:08:32.161Z,5.60
2019-04-30T03:11:11.218Z,6.15
2019-04-30T03:13:49.514Z,5.80
2019-04-30T03:16:34.870Z,6.17
2019-04-30T03:19:50.202Z,5.20
2019-04-30T03:22:30.179Z,6.50
2019-04-30T03:25:09.436Z,5.37
2019-04-30T03:27:46.557Z,5.35
2019-04-30T03:30:23.926Z,5.50
2019-04-30T03:33:03.011Z,5.95
2019-04-30T03:35:46.837Z,5.58
2019-04-30T03:38:20.983Z,5.83
2019-04-30T03:41:00.195Z,5.58
2019-04-30T03:43:39.878Z,5.15
2019-04-30T03:46:16.359Z,6.35
2019-04-30T03:48:56.114Z,6.80
2019-04-30T03:51:33.049Z,6.20
2019-04-30T03:54:10.857Z,6.45
2019-04-30T03:56:50.180Z,6.05
2019-04-30T03:59:29.852Z,5.25
2019-04-30T04:02:36.763Z,6.20
2019-04-30T04:05:29.971Z,6.10
2019-04-30T04:08:43.209Z,6.40
2019-04-30T04:11:34.514Z,5.35
2019-04-30T04:14:11.862Z,6.00
2019-04-30T04:16:50.791Z,6.37
2019-04-30T04:19:29.946Z,5.33
2019-04-30T04:22:11.924Z,5.55
2019-04-30T04:24:50.090Z,5.20
2019-04-30T04:27:26.557Z,5.47
2019-04-30T04:30:04.251Z,5.78
2019-04-30T04:32:42.280Z,6.53
2019-04-30T04:35:20.155Z,6.62
2019-04-30T04:38:00.425Z,6.33
2019-04-30T04:40:40.021Z,6.58
2019-04-30T04:43:17.231Z,6.95
2019-04-30T04:45:54.715Z,5.42
2019-04-30T04:48:33.956Z,5.80
2019-04-30T04:51:27.595Z,6.60
2019-04-30T04:53:51.161Z,5.90
2019-04-30T04:56:30.495Z,5.22
2019-04-30T04:59:10.302Z,4.40
2019-04-30T05:01:48.933Z,5.80
2019-04-30T05:04:26.304Z,5.62
2019-04-30T05:07:04.095Z,5.37
2019-04-30T05:09:41.898Z,5.12
2019-04-30T05:12:19.702Z,5.00
2019-04-30T05:14:57.118Z,4.80
2019-04-30T05:17:34.832Z,5.45
2019-04-30T05:20:12.932Z,5.95
2019-04-30T05:22:51.440Z,5.47
2019-04-30T05:25:29.605Z,5.78
2019-04-30T05:28:08.691Z,5.80
2019-04-30T05:30:46.581Z,5.78
2019-04-30T05:33:23.906Z,5.72
2019-04-30T05:36:01.289Z,5.53
2019-04-30T05:38:39.162Z,4.90
2019-04-30T05:41:19.273Z,5.33
2019-04-30T05:43:59.159Z,5.60
2019-04-30T05:46:39.654Z,5.40
2019-04-30T05:49:20.232Z,5.47
2019-04-30T05:51:56.945Z,4.37
2019-04-30T05:54:35.549Z,5.25
2019-04-30T05:57:12.918Z,4.87
2019-04-30T05:59:50.512Z,4.90
2019-04-30T06:02:33.096Z,4.50
2019-04-30T06:05:08.856Z,5.42
2019-04-30T06:07:46.412Z,5.80
2019-04-30T06:10:42.379Z,6.03
2019-04-30T06:13:29.080Z,6.25
2019-04-30T06:16:09.985Z,6.42
2019-04-30T06:18:48.549Z,5.95
2019-04-30T06:21:25.449Z,6.40
2019-04-30T06:24:03.346Z,5.60
2019-04-30T06:26:41.807Z,7.53
2019-04-30T06:29:19.337Z,5.95
2019-04-30T06:31:58.739Z,6.08
2019-04-30T06:34:39.506Z,5.40
2019-04-30T06:37:16.580Z,6.00
2019-04-30T06:39:54.101Z,7.12
2019-04-30T06:42:31.301Z,6.10
2019-04-30T06:45:09.548Z,7.00
2019-04-30T06:47:48.980Z,7.25
2019-04-30T06:50:29.276Z,6.90
2019-04-30T06:53:06.687Z,7.03
2019-04-30T06:55:44.311Z,6.33
2019-04-30T06:58:22.881Z,6.37
2019-04-30T07:01:00.792Z,6.33
2019-04-30T07:03:39.783Z,6.70
2019-04-30T07:06:27.518Z,6.12
2019-04-30T07:09:06.568Z,5.53
2019-04-30T07:11:49.346Z,4.90
2019-04-30T07:14:29.178Z,5.50
2019-04-30T07:17:06.928Z,5.12
2019-04-30T07:19:56.055Z,5.03
2019-04-30T07:22:39.506Z,4.80
2019-04-30T07:25:03.820Z,6.03
2019-04-30T07:27:41.473Z,5.28
2019-04-30T07:30:19.692Z,5.30
2019-04-30T07:32:57.387Z,5.50
2019-04-30T07:35:34.855Z,5.80
2019-04-30T07:38:13.806Z,5.58
2019-04-30T07:40:51.487Z,5.45
2019-04-30T07:43:29.004Z,5.20
2019-04-30T07:46:06.607Z,5.17
2019-04-30T07:48:44.443Z,6.37
2019-04-30T07:51:23.183Z,5.33
2019-04-30T07:54:01.388Z,5.80
2019-04-30T07:56:41.528Z,5.10
2019-04-30T07:59:20.149Z,6.53
2019-04-30T08:02:07.490Z,5.85
2019-04-30T08:05:11.348Z,5.67
2019-04-30T08:07:49.345Z,5.58
2019-04-30T08:10:27.301Z,5.92
2019-04-30T08:13:10.067Z,5.72
2019-04-30T08:15:44.565Z,5.55
2019-04-30T08:18:22.210Z,5.83
2019-04-30T08:21:01.034Z,5.58
2019-04-30T08:23:39.772Z,4.90
2019-04-30T08:26:18.757Z,5.33
2019-04-30T08:28:59.631Z,5.60
2019-04-30T08:31:40.687Z,5.17
2019-04-30T08:34:16.942Z,4.75
2019-04-30T08:36:54.868Z,5.50
2019-04-30T08:39:32.934Z,5.20
2019-04-30T08:42:10.883Z,5.70
2019-04-30T08:44:48.582Z,5.62
2019-04-30T08:47:26.016Z,5.00
2019-04-30T08:50:04.517Z,4.35
2019-04-30T08:52:42.074Z,5.10
2019-04-30T08:55:22.362Z,4.95
2019-04-30T08:58:09.308Z,4.45
2019-04-30T09:00:38.550Z,5.17
2019-04-30T09:03:19.421Z,4.75
2019-04-30T09:06:09.272Z,5.20
2019-04-30T09:08:49.007Z,4.85
2019-04-30T09:11:32.197Z,4.12
2019-04-30T09:14:06.041Z,4.10
2019-04-30T09:16:43.484Z,3.92
2019-04-30T09:19:21.954Z,4.85
2019-04-30T09:22:00.252Z,4.72
2019-04-30T09:24:39.214Z,4.87
2019-04-30T09:27:16.746Z,4.60
2019-04-30T09:29:58.817Z,4.12
2019-04-30T09:32:38.991Z,4.85
2019-04-30T09:35:19.614Z,4.28
2019-04-30T09:37:59.715Z,4.53
2019-04-30T09:40:39.839Z,4.50
2019-04-30T09:43:18.304Z,3.70
2019-04-30T09:45:55.694Z,3.55
2019-04-30T09:48:33.041Z,3.70
2019-04-30T09:51:10.948Z,4.08
2019-04-30T09:53:56.820Z,3.92
2019-04-30T09:56:29.428Z,4.60
2019-04-30T09:59:09.015Z,4.50
2019-04-30T10:01:46.047Z,4.58
2019-04-30T10:04:24.694Z,3.62
2019-04-30T10:07:02.968Z,4.03
2019-04-30T10:09:40.739Z,3.95
2019-04-30T10:12:19.580Z,4.12
2019-04-30T10:14:59.307Z,3.22
2019-04-30T10:17:43.770Z,3.70
2019-04-30T10:20:24.165Z,4.30
2019-04-30T10:23:01.801Z,3.40
2019-04-30T10:25:40.245Z,3.70
2019-04-30T10:28:19.638Z,3.98
2019-04-30T10:30:57.935Z,4.05
2019-04-30T10:33:35.173Z,4.80
2019-04-30T10:36:12.990Z,4.33
2019-04-30T10:38:51.687Z,5.45
2019-04-30T10:41:29.249Z,5.58
2019-04-30T10:44:08.892Z,4.30
2019-04-30T10:46:48.082Z,5.10
2019-04-30T10:49:25.421Z,5.62
2019-04-30T10:52:02.651Z,6.58
2019-04-30T10:54:39.923Z,5.87
2019-04-30T10:57:18.436Z,6.42
2019-04-30T10:59:55.845Z,6.55
2019-04-30T11:02:33.230Z,6.30
2019-04-30T11:05:10.955Z,6.50
2019-04-30T11:07:49.762Z,6.30
2019-04-30T11:10:28.665Z,6.40
2019-04-30T11:13:06.435Z,5.87
2019-04-30T11:15:43.987Z,5.30
2019-04-30T11:18:22.558Z,6.05
2019-04-30T11:21:00.369Z,6.10
2019-04-30T11:23:40.863Z,7.00
2019-04-30T11:26:19.195Z,7.28
2019-04-30T11:28:58.420Z,7.20
2019-04-30T11:31:51.547Z,5.95
2019-04-30T11:34:30.159Z,6.20
2019-04-30T11:37:07.644Z,6.45
2019-04-30T11:39:45.520Z,7.00
2019-04-30T11:42:26.587Z,6.50
2019-04-30T11:45:03.917Z,7.40
2019-04-30T11:47:52.893Z,7.35
2019-04-30T11:50:21.504Z,7.80
2019-04-30T11:53:13.981Z,7.05
2019-04-30T11:55:39.089Z,7.35
2019-04-30T11:58:21.705Z,7.83
2019-04-30T12:00:56.568Z,7.67
2019-04-30T12:03:34.642Z,7.62
2019-04-30T12:06:12.014Z,7.62
2019-04-30T12:09:05.926Z,7.33
2019-04-30T12:11:45.260Z,7.37
2019-04-30T12:14:24.101Z,7.20
2019-04-30T12:17:01.871Z,7.65
2019-04-30T12:19:40.195Z,7.00
2019-04-30T12:22:20.310Z,7.58
2019-04-30T12:25:04.860Z,7.25
2019-04-30T12:27:38.676Z,7.53
2019-04-30T12:30:16.546Z,7.17
2019-04-30T12:32:55.528Z,6.87
2019-04-30T12:35:32.531Z,6.80
2019-04-30T12:38:10.279Z,7.83
2019-04-30T12:40:47.519Z,7.10
2019-04-30T12:43:25.170Z,7.10
2019-04-30T12:46:05.590Z,7.22
2019-04-30T12:49:04.645Z,7.37
2019-04-30T12:51:58.617Z,7.50
2019-04-30T12:54:45.526Z,7.70
2019-04-30T12:57:36.538Z,7.62
2019-04-30T13:00:19.521Z,8.68
2019-04-30T13:02:56.605Z,7.95
2019-04-30T13:05:35.089Z,7.97
2019-04-30T13:08:12.881Z,8.10
2019-04-30T13:10:51.432Z,8.35
2019-04-30T13:13:31.713Z,7.25
2019-04-30T13:16:10.963Z,7.85
2019-04-30T13:18:49.399Z,7.95
2019-04-30T13:21:28.487Z,8.25
2019-04-30T13:24:05.713Z,8.33
2019-04-30T13:26:43.510Z,8.23
2019-04-30T13:29:27.265Z,8.30
2019-04-30T13:32:04.290Z,8.48
2019-04-30T13:34:50.375Z,8.70
2019-04-30T13:37:36.077Z,9.25
2019-04-30T13:40:31.874Z,9.30
2019-04-30T13:43:10.027Z,8.63
2019-04-30T13:45:48.694Z,8.83
2019-04-30T13:48:28.372Z,8.83
2019-04-30T13:51:06.139Z,8.90
2019-04-30T13:53:43.827Z,9.98
2019-04-30T13:56:21.242Z,9.65
2019-04-30T13:58:58.890Z,8.63
2019-04-30T14:01:38.950Z,8.78
2019-04-30T14:04:52.904Z,8.55
2019-04-30T14:07:51.570Z,9.95
2019-04-30T14:10:32.646Z,9.05
2019-04-30T14:13:11.134Z,9.35
2019-04-30T14:15:49.304Z,9.88
2019-04-30T14:18:30.978Z,9.40
2019-04-30T14:21:09.318Z,9.60
2019-04-30T14:23:46.760Z,10.50
2019-04-30T14:26:24.466Z,9.50
2019-04-30T14:29:01.907Z,9.38
2019-04-30T14:31:40.082Z,9.75
2019-04-30T14:34:18.588Z,9.60
2019-04-30T14:36:56.832Z,10.48
2019-04-30T14:39:34.565Z,9.83
2019-04-30T14:42:13.169Z,11.08
2019-04-30T14:44:53.688Z,10.28
2019-04-30T14:47:41.405Z,10.18
2019-04-30T14:50:20.778Z,10.48
2019-04-30T14:53:11.287Z,9.03
2019-04-30T14:56:08.839Z,9.88
2019-04-30T14:59:00.728Z,9.08
2019-04-30T15:01:44.211Z,9.73
2019-04-30T15:04:22.493Z,9.50
2019-04-30T15:06:59.973Z,9.43
2019-04-30T15:09:38.518Z,9.53
2019-04-30T15:12:15.674Z,10.45
2019-04-30T15:14:53.617Z,10.13
2019-04-30T15:17:30.708Z,9.83
2019-04-30T15:20:08.814Z,7.72
2019-04-30T15:22:58.657Z,8.83
2019-04-30T15:25:38.786Z,10.25
2019-04-30T15:28:16.156Z,10.53
2019-04-30T15:30:54.141Z,11.63
2019-04-30T15:34:02.470Z,12.15
2019-04-30T15:36:33.771Z,10.53
2019-04-30T15:39:40.421Z,7.72
2019-04-30T15:42:19.982Z,8.30
2019-04-30T15:44:59.269Z,8.68
2019-04-30T15:47:38.636Z,8.78
2019-04-30T15:50:19.557Z,9.05
2019-04-30T15:52:58.521Z,9.20
2019-04-30T15:55:36.373Z,34.92
2019-04-30T15:58:21.883Z,30.32
2019-04-30T16:00:59.974Z,11.12
2019-04-30T16:03:39.314Z,10.20
2019-04-30T16:06:18.462Z,10.08
2019-04-30T16:09:00.158Z,9.60
2019-04-30T16:11:54.752Z,10.20
2019-04-30T16:14:36.311Z,9.43
2019-04-30T16:17:20.474Z,9.77
2019-04-30T16:19:58.441Z,10.10
2019-04-30T16:22:39.081Z,9.43
2019-04-30T16:25:16.522Z,8.73
2019-04-30T16:27:54.488Z,9.33
2019-04-30T16:30:33.359Z,9.68
2019-04-30T16:33:10.404Z,9.78
2019-04-30T16:35:51.133Z,9.53
2019-04-30T16:38:28.947Z,9.78
2019-04-30T16:41:08.894Z,9.65
2019-04-30T16:43:48.660Z,9.85
2019-04-30T16:46:30.875Z,9.90
2019-04-30T16:49:07.601Z,10.63
2019-04-30T16:51:46.103Z,10.28
2019-04-30T16:54:25.207Z,10.53
2019-04-30T16:57:06.100Z,10.82
2019-04-30T16:59:43.682Z,10.93
2019-04-30T17:02:26.210Z,10.08
2019-04-30T17:05:11.200Z,9.78
2019-04-30T17:08:06.386Z,10.05
2019-04-30T17:10:56.163Z,9.40
2019-04-30T17:13:44.775Z,9.85
2019-04-30T17:16:24.104Z,10.95
2019-04-30T17:19:01.865Z,11.53
2019-04-30T17:21:39.579Z,10.40
2019-04-30T17:24:19.322Z,10.30
2019-04-30T17:26:56.644Z,10.50
2019-04-30T17:29:34.526Z,11.10
2019-04-30T17:32:11.715Z,10.88
2019-04-30T17:34:51.278Z,10.48
2019-04-30T17:37:31.420Z,11.43
2019-04-30T17:40:09.387Z,12.05
2019-04-30T17:42:47.553Z,11.48
2019-04-30T17:45:25.346Z,12.70
2019-04-30T17:48:02.697Z,12.05
2019-04-30T17:50:39.794Z,12.45
2019-04-30T17:53:18.956Z,12.95
2019-04-30T17:56:00.521Z,13.35
2019-04-30T17:58:38.972Z,13.22
2019-04-30T18:01:16.874Z,12.60
2019-04-30T18:03:54.242Z,12.50
2019-04-30T18:06:33.767Z,14.43
2019-04-30T18:09:11.827Z,13.70
2019-04-30T18:11:49.709Z,12.93
2019-04-30T18:14:28.533Z,13.10
2019-04-30T18:17:06.313Z,13.68
2019-04-30T18:19:59.602Z,14.30
2019-04-30T18:23:05.935Z,13.25
2019-04-30T18:25:57.327Z,11.95
2019-04-30T18:28:36.210Z,10.03
2019-04-30T18:31:13.490Z,10.15
2019-04-30T18:33:51.940Z,10.32
2019-04-30T18:36:30.287Z,11.45
2019-04-30T18:39:10.638Z,9.90
2019-04-30T18:41:49.001Z,10.48
2019-04-30T18:44:27.184Z,10.43
2019-04-30T18:47:04.095Z,10.13
2019-04-30T18:49:42.099Z,9.95
2019-04-30T18:52:19.636Z,9.95
2019-04-30T18:54:59.387Z,9.35
2019-04-30T18:57:37.176Z,7.97
2019-04-30T19:00:20.771Z,8.05
2019-04-30T19:02:58.659Z,8.10
2019-04-30T19:05:36.916Z,7.47
2019-04-30T19:08:39.463Z,6.95
2019-04-30T19:11:33.717Z,6.78
2019-04-30T19:14:29.379Z,6.90
2019-04-30T19:17:40.973Z,6.45
2019-04-30T19:20:25.073Z,5.90
2019-04-30T19:23:03.229Z,6.20
2019-04-30T19:25:40.992Z,5.42
2019-04-30T19:28:19.007Z,5.55
2019-04-30T19:31:00.380Z,5.10
2019-04-30T19:33:36.242Z,5.92
2019-04-30T19:36:14.249Z,5.70
2019-04-30T19:38:52.384Z,6.20
2019-04-30T19:41:30.726Z,5.90
2019-04-30T19:44:09.051Z,5.62
2019-04-30T19:46:48.777Z,6.17
2019-04-30T19:49:26.149Z,6.67
2019-04-30T19:52:08.430Z,5.97
2019-04-30T19:54:43.517Z,5.55
2019-04-30T19:57:21.226Z,5.97
2019-04-30T19:59:59.177Z,5.95
2019-04-30T20:02:39.116Z,6.30
2019-04-30T20:05:19.576Z,5.90
2019-04-30T20:07:59.149Z,6.85
2019-04-30T20:10:36.393Z,6.25
2019-04-30T20:13:27.827Z,6.85
2019-04-30T20:15:54.612Z,5.72
2019-04-30T20:18:32.638Z,6.58
2019-04-30T20:21:14.203Z,6.20
2019-04-30T20:23:51.293Z,6.37
2019-04-30T20:26:29.129Z,5.92
2019-04-30T20:29:08.870Z,6.55
2019-04-30T20:31:48.786Z,6.75
2019-04-30T20:34:26.238Z,6.50
2019-04-30T20:37:04.247Z,6.87
2019-04-30T20:39:50.604Z,5.75
2019-04-30T20:42:28.328Z,5.65
2019-04-30T20:45:08.971Z,4.60
2019-04-30T20:47:50.670Z,5.47
2019-04-30T20:50:31.382Z,5.28
2019-04-30T20:53:09.851Z,5.37
2019-04-30T20:55:46.980Z,5.20
2019-04-30T20:58:24.858Z,4.87
2019-04-30T21:01:06.394Z,5.58
2019-04-30T21:03:41.357Z,6.15
2019-04-30T21:06:19.805Z,5.62
2019-04-30T21:08:57.723Z,5.92
2019-04-30T21:11:38.575Z,5.30
2019-04-30T21:14:20.194Z,5.90
2019-04-30T21:16:58.926Z,4.50
2019-04-30T21:19:38.882Z,4.30
2019-04-30T21:22:16.435Z,4.62
2019-04-30T21:24:54.107Z,5.15
2019-04-30T21:27:31.542Z,4.80
2019-04-30T21:30:09.724Z,4.60
2019-04-30T21:33:11.543Z,4.50
2019-04-30T21:35:59.272Z,5.00
2019-04-30T21:38:38.833Z,4.83
2019-04-30T21:41:16.733Z,5.10
2019-04-30T21:43:54.524Z,4.17
2019-04-30T21:46:32.108Z,4.00
2019-04-30T21:49:12.171Z,4.20
2019-04-30T21:51:51.408Z,4.37
2019-04-30T21:54:30.560Z,4.37
2019-04-30T21:57:08.214Z,4.47
2019-04-30T21:59:45.439Z,4.28
2019-04-30T22:02:23.397Z,4.25
2019-04-30T22:05:00.922Z,4.12
2019-04-30T22:07:39.295Z,4.37
2019-04-30T22:10:16.806Z,4.17
2019-04-30T22:12:55.126Z,4.30
2019-04-30T22:15:33.077Z,4.50
2019-04-30T22:18:10.732Z,4.75
2019-04-30T22:20:52.628Z,4.50
2019-04-30T22:23:34.246Z,4.40
2019-04-30T22:26:11.882Z,4.35
2019-04-30T22:28:49.597Z,4.35
2019-04-30T22:31:26.564Z,4.33
2019-04-30T22:34:06.086Z,4.37
2019-04-30T22:36:45.963Z,4.15
2019-04-30T22:39:50.054Z,4.50
2019-04-30T22:42:35.105Z,4.22
2019-04-30T22:45:31.671Z,3.98
2019-04-30T22:48:09.417Z,4.10
2019-04-30T22:50:50.236Z,4.55
2019-04-30T22:53:28.934Z,5.05
2019-04-30T22:56:07.254Z,4.05
2019-04-30T22:58:44.591Z,4.12
2019-04-30T23:01:43.408Z,4.58
2019-04-30T23:04:30.132Z,4.65
2019-04-30T23:07:08.182Z,4.65
2019-04-30T23:09:45.760Z,4.80
2019-04-30T23:12:22.895Z,4.30
2019-04-30T23:14:59.948Z,3.80
2019-04-30T23:17:38.057Z,3.87
2019-04-30T23:20:16.396Z,3.60
2019-04-30T23:22:54.444Z,3.60
2019-04-30T23:25:34.520Z,3.30
2019-04-30T23:28:14.181Z,3.92
2019-04-30T23:30:51.609Z,3.50
2019-04-30T23:33:29.531Z,3.80
2019-04-30T23:36:07.478Z,3.30
2019-04-30T23:38:45.464Z,3.60
2019-04-30T23:41:23.859Z,3.60
2019-04-30T23:44:01.248Z,3.30
2019-04-30T23:46:39.983Z,3.35
2019-04-30T23:49:18.002Z,3.80
2019-04-30T23:51:56.237Z,4.70
2019-04-30T23:54:35.182Z,3.90
2019-04-30T23:57:14.194Z,4.00
2019-04-30T23:59:51.659Z,3.52
